Rome, OR

1:16 AM MDT on July 28, 2014 (GMT -0600)
RAWS GRASSY MOUNTAIN OR US (MGSFO3) Elev 4560 ft | 42.63 °N, 117.40 °W | Change Station

Current weather conditions updated 52 minutes ago

Scattered Clouds
Scattered Clouds
82 °F
Feels Like 80 °F
N
14
Wind Variable Wind from ESE
Gusts 19.0 mph

Today is forecast to be Cooler than yesterday.

Today
High -- | Low -- °F
--% Chance of Precip.
Yesterday
High -- | Low -- °F
Precip. -- in
6:37 AM 9:14 PM
New Moon, 2% visible
Pressure 29.91 in
Visibility 10.0 miles
Clouds Scattered Clouds 15000 ft
Heat Index 80 °F
Dew Point 26 °F
Humidity 13%
Rainfall 0.00 in
Snow Depth Not available.
UV 0 out of 12
Pollen 4.70 out of 12
Air Quality Not available.
Flu Activity Not available.
METAR KMUO 280658Z AUTO 28010KT 10SM SCT150 28/04 A3001 RMK AO2 SLP128 T02800043 403770127 $

More Conditions Fewer Conditions

Pressure 29.91 in
Visibility 10.0 miles
Clouds Scattered Clouds 15000 ft
Heat Index 80 °F
Dew Point 26 °F
Humidity 13%
Rainfall 0.00 in
Snow Depth Not available.
UV 0 out of 12
Pollen 4.70 out of 12
Air Quality Not available.
Flu Activity Not available.
METAR KMUO 280658Z AUTO 28010KT 10SM SCT150 28/04 A3001 RMK AO2 SLP128 T02800043 403770127 $

More Conditions Fewer Conditions

10-Day Weather Forecast

Almanac

Astronomy

Jul. 28, 2014 Rise Set
Actual Time 6:37 AM MDT 9:14 PM MDT
Civil Twilight 6:04 AM MDT 9:46 PM MDT
Nautical Twilight 5:24 AM MDT 10:27 PM MDT
Astronomical Twilight 4:38 AM MDT 11:13 PM MDT
Moon 8:26 AM MDT 9:54 PM MDT
Length of Visible Light 15h 41m
Length of Day
14h 36m
Tomorrow will be 2m 4s shorter.
New Moon, 2% of the Moon is Illuminated
Today
New Moon
Aug 3
First Quarter
Aug 10
Full
Aug 17
Last Quarter
Aug 25
New

Today's Extremes

State Highs State Lows

Community

WunderPhotos

Upload Photos

1,738,292 photos uploaded!

Nearby

Snow Depth

Station Depth Elevation
Fish Creek 0 in 7900 ft
Lake Creek R.S. 0 in 5200 ft
Blue Mountain Spring 0 in 5900 ft
Tipton 0 in 5150 ft
Bourne 0 in 5800 ft

Earthquake Activity

City Distance Mag. Time & Date
No recent earthquake activity has been reported nearby.
Minimum magnitude displayed is 2.5.

Coastal Water Temperatures

Place Temperature
No Stations Reporting

Nearby Weather Stations

Station Location Temp. Heat Index Dew Point Humidity Wind Precip. Elev Updated Type
RAWS GRASSY MOUNTAIN OR, Jordan Valley, OR 82 °F 80 °F 26 °F 13% ESE  at  14 mph 0.00 in / hr 4560 ft 12:24 AM MDT MADIS
HADS DANNER OR, Arock, OR 71 °F - - - North  at  - 0.00 in / hr 4225 ft 12:45 AM MDT MADIS

Show More Stations Show Fewer Stations